sensor_id;sensor_type;location;lat;lon;timestamp;pressure;altitude;pressure_sealevel;temperature;humidity
1694;BME280;71975;47.068;15.408;2023-12-29T00:01:47;97677.22;;;4.41;86.89
1694;BME280;71975;47.068;15.408;2023-12-29T00:06:50;97667.84;;;4.28;87.42
1694;BME280;71975;47.068;15.408;2023-12-29T00:12:03;97665.38;;;4.19;88.20
1694;BME280;71975;47.068;15.408;2023-12-29T00:17:08;97667.69;;;3.75;91.75
1694;BME280;71975;47.068;15.408;2023-12-29T00:22:11;97662.91;;;3.65;93.81
1694;BME280;71975;47.068;15.408;2023-12-29T00:27:14;97658.56;;;3.99;89.91
1694;BME280;71975;47.068;15.408;2023-12-29T00:32:18;97661.41;;;4.10;89.43
1694;BME280;71975;47.068;15.408;2023-12-29T00:37:22;97647.59;;;3.66;91.34
1694;BME280;71975;47.068;15.408;2023-12-29T00:42:25;97656.13;;;3.52;92.84
1694;BME280;71975;47.068;15.408;2023-12-29T00:47:29;97669.00;;;3.47;94.98
1694;BME280;71975;47.068;15.408;2023-12-29T00:52:32;97672.47;;;3.47;94.72
1694;BME280;71975;47.068;15.408;2023-12-29T00:57:37;97672.59;;;3.35;96.30
1694;BME280;71975;47.068;15.408;2023-12-29T01:02:41;97682.06;;;3.48;95.40
1694;BME280;71975;47.068;15.408;2023-12-29T01:07:44;97666.31;;;3.66;94.67
1694;BME280;71975;47.068;15.408;2023-12-29T01:12:47;97669.88;;;3.70;93.88
1694;BME280;71975;47.068;15.408;2023-12-29T01:17:52;97667.53;;;3.30;96.50
1694;BME280;71975;47.068;15.408;2023-12-29T01:22:55;97667.06;;;2.90;98.88
1694;BME280;71975;47.068;15.408;2023-12-29T01:27:58;97665.00;;;3.37;96.78
1694;BME280;71975;47.068;15.408;2023-12-29T01:33:02;97668.88;;;3.59;92.70
1694;BME280;71975;47.068;15.408;2023-12-29T01:38:05;97666.63;;;3.42;93.93
1694;BME280;71975;47.068;15.408;2023-12-29T01:43:08;97662.25;;;3.53;94.27
1694;BME280;71975;47.068;15.408;2023-12-29T01:48:13;97656.13;;;3.33;96.31
1694;BME280;71975;47.068;15.408;2023-12-29T01:53:16;97649.66;;;3.53;93.79
1694;BME280;71975;47.068;15.408;2023-12-29T01:58:22;97638.06;;;3.68;93.31
1694;BME280;71975;47.068;15.408;2023-12-29T02:03:27;97634.44;;;3.57;92.38
1694;BME280;71975;47.068;15.408;2023-12-29T02:08:30;97628.94;;;2.93;96.72
1694;BME280;71975;47.068;15.408;2023-12-29T02:13:33;97613.81;;;3.00;97.59
1694;BME280;71975;47.068;15.408;2023-12-29T02:18:38;97607.97;;;3.14;96.48
1694;BME280;71975;47.068;15.408;2023-12-29T02:23:43;97606.84;;;3.15;95.41
1694;BME280;71975;47.068;15.408;2023-12-29T02:28:59;97617.25;;;3.20;95.21
1694;BME280;71975;47.068;15.408;2023-12-29T02:34:03;97599.13;;;3.29;94.21
1694;BME280;71975;47.068;15.408;2023-12-29T02:39:09;97600.59;;;2.53;100.00
1694;BME280;71975;47.068;15.408;2023-12-29T02:44:14;97598.09;;;2.80;100.00
1694;BME280;71975;47.068;15.408;2023-12-29T02:49:17;97597.97;;;3.11;98.30
1694;BME280;71975;47.068;15.408;2023-12-29T02:54:20;97599.09;;;2.91;98.54
1694;BME280;71975;47.068;15.408;2023-12-29T02:59:25;97600.88;;;3.02;97.50
1694;BME280;71975;47.068;15.408;2023-12-29T03:04:28;97591.94;;;3.14;96.28
1694;BME280;71975;47.068;15.408;2023-12-29T03:09:31;97604.94;;;2.96;99.35
1694;BME280;71975;47.068;15.408;2023-12-29T03:14:35;97598.13;;;3.18;96.83
1694;BME280;71975;47.068;15.408;2023-12-29T03:19:38;97594.47;;;3.26;93.56
1694;BME280;71975;47.068;15.408;2023-12-29T03:24:42;97586.66;;;3.17;94.75
1694;BME280;71975;47.068;15.408;2023-12-29T03:29:46;97594.75;;;3.02;94.98
1694;BME280;71975;47.068;15.408;2023-12-29T03:34:49;97591.53;;;3.12;95.14
1694;BME280;71975;47.068;15.408;2023-12-29T03:39:52;97591.66;;;3.00;94.77
1694;BME280;71975;47.068;15.408;2023-12-29T03:44:57;97577.91;;;2.82;95.28
1694;BME280;71975;47.068;15.408;2023-12-29T03:50:00;97575.59;;;2.81;95.71
1694;BME280;71975;47.068;15.408;2023-12-29T03:55:04;97571.78;;;3.01;94.70
1694;BME280;71975;47.068;15.408;2023-12-29T04:00:11;97577.41;;;2.96;94.98
1694;BME280;71975;47.068;15.408;2023-12-29T04:05:14;97577.88;;;2.98;93.55
1694;BME280;71975;47.068;15.408;2023-12-29T04:10:17;97592.75;;;2.80;96.68
1694;BME280;71975;47.068;15.408;2023-12-29T04:15:22;97578.13;;;2.74;96.94
1694;BME280;71975;47.068;15.408;2023-12-29T04:20:25;97574.47;;;2.82;95.75
1694;BME280;71975;47.068;15.408;2023-12-29T04:25:28;97568.66;;;2.95;94.57
1694;BME280;71975;47.068;15.408;2023-12-29T04:30:32;97582.84;;;2.99;93.98
1694;BME280;71975;47.068;15.408;2023-12-29T04:35:35;97587.41;;;2.99;93.46
1694;BME280;71975;47.068;15.408;2023-12-29T04:40:38;97594.38;;;3.03;91.75
1694;BME280;71975;47.068;15.408;2023-12-29T04:45:42;97590.53;;;2.31;95.37
1694;BME280;71975;47.068;15.408;2023-12-29T04:50:45;97588.63;;;2.16;98.08
1694;BME280;71975;47.068;15.408;2023-12-29T04:55:48;97584.31;;;2.43;95.11
1694;BME280;71975;47.068;15.408;2023-12-29T05:00:52;97597.50;;;2.51;94.59
1694;BME280;71975;47.068;15.408;2023-12-29T05:05:55;97603.69;;;2.55;93.96
1694;BME280;71975;47.068;15.408;2023-12-29T05:10:58;97596.97;;;2.61;95.25
1694;BME280;71975;47.068;15.408;2023-12-29T05:16:03;97590.81;;;2.61;94.89
1694;BME280;71975;47.068;15.408;2023-12-29T05:21:14;97600.31;;;2.58;93.38
1694;BME280;71975;47.068;15.408;2023-12-29T05:26:17;97605.84;;;2.50;94.12
1694;BME280;71975;47.068;15.408;2023-12-29T05:31:21;97608.19;;;2.36;96.28
1694;BME280;71975;47.068;15.408;2023-12-29T05:36:24;97610.59;;;2.41;95.23
1694;BME280;71975;47.068;15.408;2023-12-29T05:41:27;97614.38;;;2.55;94.18
1694;BME280;71975;47.068;15.408;2023-12-29T05:46:31;97610.13;;;2.54;93.07
1694;BME280;71975;47.068;15.408;2023-12-29T05:51:34;97621.63;;;2.39;95.56
1694;BME280;71975;47.068;15.408;2023-12-29T05:56:37;97612.63;;;2.47;94.18
1694;BME280;71975;47.068;15.408;2023-12-29T06:01:42;97618.59;;;2.56;92.05
1694;BME280;71975;47.068;15.408;2023-12-29T06:06:45;97615.06;;;2.52;92.68
1694;BME280;71975;47.068;15.408;2023-12-29T06:11:49;97618.53;;;2.37;95.01
1694;BME280;71975;47.068;15.408;2023-12-29T06:16:54;97618.88;;;2.51;94.48
1694;BME280;71975;47.068;15.408;2023-12-29T06:21:57;97623.75;;;2.65;92.13
1694;BME280;71975;47.068;15.408;2023-12-29T06:27:00;97623.91;;;2.72;91.29
1694;BME280;71975;47.068;15.408;2023-12-29T06:32:05;97629.81;;;2.31;94.27
1694;BME280;71975;47.068;15.408;2023-12-29T06:37:08;97631.91;;;2.37;95.99
1694;BME280;71975;47.068;15.408;2023-12-29T06:42:11;97634.69;;;2.60;94.14
1694;BME280;71975;47.068;15.408;2023-12-29T06:47:16;97636.38;;;2.84;93.19
1694;BME280;71975;47.068;15.408;2023-12-29T06:52:19;97642.06;;;2.82;92.49
1694;BME280;71975;47.068;15.408;2023-12-29T06:57:22;97644.78;;;2.51;94.33
1694;BME280;71975;47.068;15.408;2023-12-29T07:02:26;97654.06;;;2.73;92.43
1694;BME280;71975;47.068;15.408;2023-12-29T07:07:29;97651.56;;;2.80;90.38
1694;BME280;71975;47.068;15.408;2023-12-29T07:12:32;97653.22;;;2.68;92.57
1694;BME280;71975;47.068;15.408;2023-12-29T07:17:37;97662.88;;;2.57;92.48
1694;BME280;71975;47.068;15.408;2023-12-29T07:22:40;97670.13;;;2.73;92.10
1694;BME280;71975;47.068;15.408;2023-12-29T07:27:44;97678.84;;;2.54;93.76
1694;BME280;71975;47.068;15.408;2023-12-29T07:32:49;97683.53;;;2.92;91.00
1694;BME280;71975;47.068;15.408;2023-12-29T07:37:52;97679.84;;;3.34;89.48
1694;BME280;71975;47.068;15.408;2023-12-29T07:42:55;97690.66;;;3.57;90.79
1694;BME280;71975;47.068;15.408;2023-12-29T07:48:01;97680.22;;;3.71;87.75
1694;BME280;71975;47.068;15.408;2023-12-29T07:53:07;97681.41;;;3.74;84.76
1694;BME280;71975;47.068;15.408;2023-12-29T07:58:10;97683.13;;;3.63;86.86
1694;BME280;71975;47.068;15.408;2023-12-29T08:03:15;97687.75;;;3.66;86.31
1694;BME280;71975;47.068;15.408;2023-12-29T08:08:18;97692.66;;;3.83;83.12
1694;BME280;71975;47.068;15.408;2023-12-29T08:13:21;97678.63;;;5.06;77.63
1694;BME280;71975;47.068;15.408;2023-12-29T08:18:25;97680.16;;;4.55;78.77
1694;BME280;71975;47.068;15.408;2023-12-29T08:23:29;97681.00;;;4.59;78.21
1694;BME280;71975;47.068;15.408;2023-12-29T08:28:32;97676.06;;;6.10;71.95
1694;BME280;71975;47.068;15.408;2023-12-29T08:33:37;97670.25;;;5.38;74.26
1694;BME280;71975;47.068;15.408;2023-12-29T08:38:40;97658.19;;;5.24;75.10
1694;BME280;71975;47.068;15.408;2023-12-29T08:43:43;97659.75;;;5.92;71.65
1694;BME280;71975;47.068;15.408;2023-12-29T08:48:47;97660.19;;;6.89;69.04
1694;BME280;71975;47.068;15.408;2023-12-29T08:53:50;97668.19;;;6.27;69.31
1694;BME280;71975;47.068;15.408;2023-12-29T08:58:54;97678.09;;;5.86;70.36
1694;BME280;71975;47.068;15.408;2023-12-29T09:03:58;97687.41;;;5.33;72.99
1694;BME280;71975;47.068;15.408;2023-12-29T09:09:02;97690.69;;;5.19;75.67
1694;BME280;71975;47.068;15.408;2023-12-29T09:14:05;97689.53;;;5.47;74.28
1694;BME280;71975;47.068;15.408;2023-12-29T09:19:09;97678.63;;;5.99;73.31
1694;BME280;71975;47.068;15.408;2023-12-29T09:24:15;97675.41;;;6.23;71.02
1694;BME280;71975;47.068;15.408;2023-12-29T09:29:18;97671.41;;;6.03;72.01
1694;BME280;71975;47.068;15.408;2023-12-29T09:34:22;97672.13;;;6.00;70.75
1694;BME280;71975;47.068;15.408;2023-12-29T09:39:25;97668.78;;;6.10;72.23
1694;BME280;71975;47.068;15.408;2023-12-29T09:44:31;97667.28;;;6.16;72.05
1694;BME280;71975;47.068;15.408;2023-12-29T09:49:37;97663.47;;;6.64;69.96
1694;BME280;71975;47.068;15.408;2023-12-29T09:54:42;97664.34;;;6.76;68.07
1694;BME280;71975;47.068;15.408;2023-12-29T09:59:48;97661.47;;;6.54;67.92
1694;BME280;71975;47.068;15.408;2023-12-29T10:04:55;97655.00;;;6.62;67.14
1694;BME280;71975;47.068;15.408;2023-12-29T10:09:58;97644.16;;;7.10;66.90
1694;BME280;71975;47.068;15.408;2023-12-29T10:15:05;97641.63;;;7.42;65.33
1694;BME280;71975;47.068;15.408;2023-12-29T10:20:20;97648.66;;;7.67;63.85
1694;BME280;71975;47.068;15.408;2023-12-29T10:25:25;97622.91;;;7.87;63.00
1694;BME280;71975;47.068;15.408;2023-12-29T10:30:28;97631.00;;;7.87;61.69
1694;BME280;71975;47.068;15.408;2023-12-29T10:35:37;97619.44;;;7.83;61.59
1694;BME280;71975;47.068;15.408;2023-12-29T10:40:41;97607.91;;;7.93;60.85
1694;BME280;71975;47.068;15.408;2023-12-29T10:45:45;97606.03;;;8.26;60.63
1694;BME280;71975;47.068;15.408;2023-12-29T10:50:50;97596.03;;;8.54;60.04
1694;BME280;71975;47.068;15.408;2023-12-29T10:55:56;97592.56;;;8.61;58.08
1694;BME280;71975;47.068;15.408;2023-12-29T11:01:00;97594.84;;;8.80;58.47
1694;BME280;71975;47.068;15.408;2023-12-29T11:06:04;97576.69;;;8.88;58.57
1694;BME280;71975;47.068;15.408;2023-12-29T11:11:07;97568.94;;;9.07;57.75
1694;BME280;71975;47.068;15.408;2023-12-29T11:16:12;97564.97;;;9.29;59.36
1694;BME280;71975;47.068;15.408;2023-12-29T11:21:16;97563.75;;;9.41;58.06
1694;BME280;71975;47.068;15.408;2023-12-29T11:26:20;97543.34;;;9.37;57.78
1694;BME280;71975;47.068;15.408;2023-12-29T11:31:24;97539.81;;;9.47;57.13
1694;BME280;71975;47.068;15.408;2023-12-29T11:36:32;97536.59;;;9.66;56.69
1694;BME280;71975;47.068;15.408;2023-12-29T11:41:40;97518.44;;;9.70;56.31
1694;BME280;71975;47.068;15.408;2023-12-29T11:46:46;97514.09;;;9.79;55.89
1694;BME280;71975;47.068;15.408;2023-12-29T11:51:50;97514.88;;;9.80;56.18
1694;BME280;71975;47.068;15.408;2023-12-29T11:56:54;97516.28;;;9.98;55.94
1694;BME280;71975;47.068;15.408;2023-12-29T12:01:58;97506.44;;;10.26;55.03
1694;BME280;71975;47.068;15.408;2023-12-29T12:07:04;97506.63;;;10.45;54.18
1694;BME280;71975;47.068;15.408;2023-12-29T12:12:10;97499.50;;;10.58;53.38
1694;BME280;71975;47.068;15.408;2023-12-29T12:17:26;97495.72;;;10.52;53.53
1694;BME280;71975;47.068;15.408;2023-12-29T12:22:31;97494.88;;;10.59;52.36
1694;BME280;71975;47.068;15.408;2023-12-29T12:27:39;97494.84;;;11.26;51.21
1694;BME280;71975;47.068;15.408;2023-12-29T12:32:42;97485.91;;;11.56;50.26
1694;BME280;71975;47.068;15.408;2023-12-29T12:37:47;97489.72;;;11.62;50.65
1694;BME280;71975;47.068;15.408;2023-12-29T14:04:44;97468.88;;;12.52;46.51
1694;BME280;71975;47.068;15.408;2023-12-29T14:09:47;97466.28;;;12.45;46.62
1694;BME280;71975;47.068;15.408;2023-12-29T14:15:02;97466.13;;;12.32;46.93
1694;BME280;71975;47.068;15.408;2023-12-29T14:20:08;97467.84;;;12.23;47.41
1694;BME280;71975;47.068;15.408;2023-12-29T14:25:12;97463.81;;;12.08;48.20
1694;BME280;71975;47.068;15.408;2023-12-29T14:30:18;97466.78;;;11.93;48.59
1694;BME280;71975;47.068;15.408;2023-12-29T14:35:24;97467.25;;;11.62;49.70
1694;BME280;71975;47.068;15.408;2023-12-29T14:40:27;97469.72;;;11.53;50.34
1694;BME280;71975;47.068;15.408;2023-12-29T14:45:30;97476.91;;;11.36;51.25
1694;BME280;71975;47.068;15.408;2023-12-29T14:50:35;97474.34;;;11.25;51.45
1694;BME280;71975;47.068;15.408;2023-12-29T14:55:38;97473.41;;;11.09;51.96
1694;BME280;71975;47.068;15.408;2023-12-29T15:00:43;97474.75;;;10.94;53.02
1694;BME280;71975;47.068;15.408;2023-12-29T15:05:50;97469.56;;;10.76;53.55
1694;BME280;71975;47.068;15.408;2023-12-29T15:10:53;97475.91;;;10.62;54.61
1694;BME280;71975;47.068;15.408;2023-12-29T15:15:57;97468.38;;;10.43;56.66
1694;BME280;71975;47.068;15.408;2023-12-29T15:21:02;97469.34;;;10.23;56.18
1694;BME280;71975;47.068;15.408;2023-12-29T15:26:05;97465.69;;;9.99;57.38
1694;BME280;71975;47.068;15.408;2023-12-29T15:31:08;97456.91;;;9.84;58.04
1694;BME280;71975;47.068;15.408;2023-12-29T15:36:14;97453.91;;;9.72;58.03
1694;BME280;71975;47.068;15.408;2023-12-29T15:41:21;97446.28;;;9.60;57.80
1694;BME280;71975;47.068;15.408;2023-12-29T15:46:24;97449.50;;;9.44;57.03
1694;BME280;71975;47.068;15.408;2023-12-29T15:51:29;97440.31;;;9.34;57.69
1694;BME280;71975;47.068;15.408;2023-12-29T15:56:32;97445.34;;;9.25;57.64
1694;BME280;71975;47.068;15.408;2023-12-29T16:01:35;97445.41;;;9.18;57.79
1694;BME280;71975;47.068;15.408;2023-12-29T16:06:39;97430.47;;;9.03;59.17
1694;BME280;71975;47.068;15.408;2023-12-29T16:11:42;97433.25;;;8.82;60.43
1694;BME280;71975;47.068;15.408;2023-12-29T16:16:45;97431.41;;;8.68;60.78
1694;BME280;71975;47.068;15.408;2023-12-29T16:21:50;97424.13;;;8.55;61.46
1694;BME280;71975;47.068;15.408;2023-12-29T16:26:53;97425.31;;;8.47;61.99
1694;BME280;71975;47.068;15.408;2023-12-29T16:31:56;97418.41;;;8.35;63.79
1694;BME280;71975;47.068;15.408;2023-12-29T16:37:00;97409.97;;;8.30;60.80
1694;BME280;71975;47.068;15.408;2023-12-29T16:42:04;97417.25;;;8.26;62.12
1694;BME280;71975;47.068;15.408;2023-12-29T16:47:07;97407.63;;;8.21;61.96
1694;BME280;71975;47.068;15.408;2023-12-29T16:52:12;97409.19;;;8.12;62.02
1694;BME280;71975;47.068;15.408;2023-12-29T16:57:15;97410.00;;;8.09;61.00
1694;BME280;71975;47.068;15.408;2023-12-29T17:02:20;97416.94;;;7.99;62.80
1694;BME280;71975;47.068;15.408;2023-12-29T17:07:25;97412.31;;;7.89;63.03
1694;BME280;71975;47.068;15.408;2023-12-29T17:12:29;97417.69;;;7.92;61.87
1694;BME280;71975;47.068;15.408;2023-12-29T17:17:32;97421.56;;;7.81;62.48
1694;BME280;71975;47.068;15.408;2023-12-29T17:22:36;97423.88;;;7.68;63.19
1694;BME280;71975;47.068;15.408;2023-12-29T17:27:39;97420.81;;;7.52;64.17
1694;BME280;71975;47.068;15.408;2023-12-29T17:32:42;97425.44;;;7.55;63.70
1694;BME280;71975;47.068;15.408;2023-12-29T17:37:46;97430.81;;;7.41;64.45
1694;BME280;71975;47.068;15.408;2023-12-29T17:42:49;97423.09;;;7.40;65.11
1694;BME280;71975;47.068;15.408;2023-12-29T17:47:52;97413.09;;;7.36;64.01
1694;BME280;71975;47.068;15.408;2023-12-29T17:52:56;97410.41;;;7.40;63.66
1694;BME280;71975;47.068;15.408;2023-12-29T17:58:01;97411.56;;;7.35;62.23
1694;BME280;71975;47.068;15.408;2023-12-29T18:03:04;97418.50;;;7.26;64.73
1694;BME280;71975;47.068;15.408;2023-12-29T18:08:09;97419.22;;;7.19;64.92
1694;BME280;71975;47.068;15.408;2023-12-29T18:13:12;97419.63;;;7.21;65.46
1694;BME280;71975;47.068;15.408;2023-12-29T18:18:17;97426.09;;;6.96;65.97
1694;BME280;71975;47.068;15.408;2023-12-29T18:23:23;97419.97;;;6.92;66.28
1694;BME280;71975;47.068;15.408;2023-12-29T18:28:27;97429.56;;;6.93;65.68
1694;BME280;71975;47.068;15.408;2023-12-29T18:33:30;97430.34;;;6.90;65.52
1694;BME280;71975;47.068;15.408;2023-12-29T18:38:36;97436.84;;;6.78;67.90
1694;BME280;71975;47.068;15.408;2023-12-29T18:43:39;97444.47;;;6.65;67.51
1694;BME280;71975;47.068;15.408;2023-12-29T18:48:42;97432.22;;;6.75;71.34
1694;BME280;71975;47.068;15.408;2023-12-29T18:53:47;97435.25;;;6.74;68.15
1694;BME280;71975;47.068;15.408;2023-12-29T18:58:50;97435.97;;;6.56;67.57
1694;BME280;71975;47.068;15.408;2023-12-29T19:03:53;97430.91;;;6.44;67.30
1694;BME280;71975;47.068;15.408;2023-12-29T19:08:58;97432.84;;;6.47;67.12
1694;BME280;71975;47.068;15.408;2023-12-29T19:14:01;97438.97;;;6.44;66.65
1694;BME280;71975;47.068;15.408;2023-12-29T19:19:04;97437.78;;;6.31;66.94
1694;BME280;71975;47.068;15.408;2023-12-29T19:24:09;97436.91;;;6.13;68.38
1694;BME280;71975;47.068;15.408;2023-12-29T19:29:12;97441.06;;;6.00;69.12
1694;BME280;71975;47.068;15.408;2023-12-29T19:34:15;97444.22;;;6.13;68.53
1694;BME280;71975;47.068;15.408;2023-12-29T19:39:22;97454.97;;;6.16;68.09
1694;BME280;71975;47.068;15.408;2023-12-29T19:44:25;97444.22;;;6.16;67.46
1694;BME280;71975;47.068;15.408;2023-12-29T19:49:28;97439.25;;;6.22;67.56
1694;BME280;71975;47.068;15.408;2023-12-29T19:54:33;97436.59;;;6.25;66.59
1694;BME280;71975;47.068;15.408;2023-12-29T19:59:36;97427.38;;;6.26;66.62
1694;BME280;71975;47.068;15.408;2023-12-29T20:04:40;97422.78;;;6.30;66.09
1694;BME280;71975;47.068;15.408;2023-12-29T20:09:45;97418.63;;;6.43;65.04
1694;BME280;71975;47.068;15.408;2023-12-29T20:14:49;97421.75;;;6.52;64.98
1694;BME280;71975;47.068;15.408;2023-12-29T20:19:53;97421.19;;;6.15;67.23
1694;BME280;71975;47.068;15.408;2023-12-29T20:24:59;97412.28;;;6.04;67.20
1694;BME280;71975;47.068;15.408;2023-12-29T20:30:04;97411.84;;;5.98;68.44
1694;BME280;71975;47.068;15.408;2023-12-29T20:35:08;97412.59;;;5.92;69.31
1694;BME280;71975;47.068;15.408;2023-12-29T20:40:13;97412.38;;;5.64;70.70
1694;BME280;71975;47.068;15.408;2023-12-29T20:45:17;97415.41;;;5.59;71.71
1694;BME280;71975;47.068;15.408;2023-12-29T20:50:20;97417.81;;;5.74;71.00
1694;BME280;71975;47.068;15.408;2023-12-29T20:55:25;97414.72;;;5.72;71.20
1694;BME280;71975;47.068;15.408;2023-12-29T21:00:29;97416.28;;;5.77;70.80
1694;BME280;71975;47.068;15.408;2023-12-29T21:05:32;97408.78;;;5.46;72.75
1694;BME280;71975;47.068;15.408;2023-12-29T21:10:36;97409.13;;;5.41;72.66
1694;BME280;71975;47.068;15.408;2023-12-29T21:15:39;97411.00;;;5.36;72.86
1694;BME280;71975;47.068;15.408;2023-12-29T21:20:42;97407.91;;;4.94;75.26
1694;BME280;71975;47.068;15.408;2023-12-29T21:25:47;97416.38;;;4.96;75.31
1694;BME280;71975;47.068;15.408;2023-12-29T21:30:50;97419.66;;;5.16;74.45
1694;BME280;71975;47.068;15.408;2023-12-29T21:35:53;97418.19;;;5.25;73.98
1694;BME280;71975;47.068;15.408;2023-12-29T21:40:57;97426.09;;;5.11;73.93
1694;BME280;71975;47.068;15.408;2023-12-29T21:46:03;97423.78;;;5.10;74.59
1694;BME280;71975;47.068;15.408;2023-12-29T21:51:07;97425.41;;;5.18;74.12
1694;BME280;71975;47.068;15.408;2023-12-29T21:56:12;97423.53;;;5.22;73.56
1694;BME280;71975;47.068;15.408;2023-12-29T22:01:29;97422.34;;;5.19;73.99
1694;BME280;71975;47.068;15.408;2023-12-29T22:06:38;97419.72;;;5.23;73.93
1694;BME280;71975;47.068;15.408;2023-12-29T22:11:42;97419.06;;;5.36;73.01
1694;BME280;71975;47.068;15.408;2023-12-29T22:16:45;97419.53;;;5.05;73.83
1694;BME280;71975;47.068;15.408;2023-12-29T22:21:49;97426.28;;;5.29;72.78
1694;BME280;71975;47.068;15.408;2023-12-29T22:26:56;97424.50;;;5.03;73.59
1694;BME280;71975;47.068;15.408;2023-12-29T22:32:00;97433.41;;;5.11;73.59
1694;BME280;71975;47.068;15.408;2023-12-29T22:37:03;97429.94;;;5.10;73.24
1694;BME280;71975;47.068;15.408;2023-12-29T22:42:08;97432.47;;;4.63;76.30
1694;BME280;71975;47.068;15.408;2023-12-29T22:47:10;97425.09;;;4.53;76.94
1694;BME280;71975;47.068;15.408;2023-12-29T22:52:14;97422.47;;;4.93;74.93
1694;BME280;71975;47.068;15.408;2023-12-29T22:57:18;97414.91;;;5.02;73.91
1694;BME280;71975;47.068;15.408;2023-12-29T23:02:21;97415.22;;;4.94;74.48
1694;BME280;71975;47.068;15.408;2023-12-29T23:07:24;97416.31;;;4.89;74.51
1694;BME280;71975;47.068;15.408;2023-12-29T23:12:29;97415.88;;;4.84;74.69
1694;BME280;71975;47.068;15.408;2023-12-29T23:17:32;97405.66;;;4.63;75.84
1694;BME280;71975;47.068;15.408;2023-12-29T23:22:36;97405.91;;;4.51;77.02
1694;BME280;71975;47.068;15.408;2023-12-29T23:27:40;97406.50;;;4.67;76.32
1694;BME280;71975;47.068;15.408;2023-12-29T23:32:43;97399.34;;;4.78;75.56
1694;BME280;71975;47.068;15.408;2023-12-29T23:37:46;97390.19;;;4.83;75.21
1694;BME280;71975;47.068;15.408;2023-12-29T23:42:50;97399.47;;;4.92;74.29
1694;BME280;71975;47.068;15.408;2023-12-29T23:47:53;97390.97;;;4.83;74.36
1694;BME280;71975;47.068;15.408;2023-12-29T23:52:56;97394.38;;;4.47;76.46
1694;BME280;71975;47.068;15.408;2023-12-29T23:58:03;97391.00;;;4.20;78.10
